createdAt,value
2018-09-16T00:04:36.976Z,94337.33
2018-09-16T00:20:12.262Z,94319.42
2018-09-16T00:35:46.971Z,94310.59
2018-09-16T00:51:21.540Z,94316.91
2018-09-16T01:07:03.688Z,94316.10
2018-09-16T01:22:38.608Z,94295.97
2018-09-16T01:38:19.600Z,94300.66
2018-09-16T01:53:54.024Z,94313.95
2018-09-16T02:09:29.284Z,94324.56
2018-09-16T02:25:04.334Z,94331.00
2018-09-16T02:40:39.051Z,94339.30
2018-09-16T02:56:13.635Z,94344.23
2018-09-16T03:11:48.339Z,94341.41
2018-09-16T03:27:22.843Z,94342.91
2018-09-16T03:43:06.020Z,94328.64
2018-09-16T03:58:40.076Z,94335.36
2018-09-16T04:14:14.337Z,94352.52
2018-09-16T04:29:49.267Z,94358.20
2018-09-16T04:45:23.392Z,94357.94
2018-09-16T05:00:57.417Z,94359.72
2018-09-16T05:16:31.782Z,94377.95
2018-09-16T05:32:06.657Z,94377.66
2018-09-16T05:47:41.133Z,94395.63
2018-09-16T06:03:16.036Z,94390.91
2018-09-16T06:18:50.487Z,94378.86
2018-09-16T06:34:25.212Z,94397.44
2018-09-16T06:49:58.893Z,94407.63
2018-09-16T07:05:33.376Z,94401.93
2018-09-16T07:21:08.424Z,94391.94
2018-09-16T07:36:41.889Z,94386.26
2018-09-16T07:52:16.270Z,94384.77
2018-09-16T08:07:51.145Z,94384.52
2018-09-16T08:23:26.070Z,94389.92
2018-09-16T08:39:00.168Z,94396.57
2018-09-16T08:54:35.085Z,94373.50
2018-09-16T09:10:09.406Z,94374.02
2018-09-16T09:25:44.195Z,94364.72
2018-09-16T09:41:18.199Z,94362.27
2018-09-16T09:56:51.884Z,94362.45
2018-09-16T10:12:25.263Z,94363.53
2018-09-16T10:27:59.844Z,94359.67
2018-09-16T10:43:34.576Z,94361.28
2018-09-16T10:59:08.224Z,94352.67
2018-09-16T11:14:42.748Z,94336.95
2018-09-16T11:30:16.177Z,94352.27
2018-09-16T11:45:50.172Z,94356.55
2018-09-16T12:01:24.717Z,94352.08
2018-09-16T12:16:59.270Z,94337.10
2018-09-16T12:32:34.214Z,94332.98
2018-09-16T12:48:08.794Z,94327.27
2018-09-16T13:03:43.389Z,94327.80
2018-09-16T13:19:18.264Z,94311.48
2018-09-16T13:34:52.853Z,94313.02
2018-09-16T13:50:26.926Z,94309.16
2018-09-16T14:06:00.822Z,94316.77
2018-09-16T14:21:35.880Z,94319.63
2018-09-16T14:37:10.647Z,94334.28
2018-09-16T14:52:45.118Z,94328.36
2018-09-16T15:08:22.421Z,94327.25
2018-09-16T15:23:57.240Z,94332.06
2018-09-16T15:39:32.699Z,94343.17
2018-09-16T15:55:06.003Z,94352.08
2018-09-16T16:10:40.500Z,94378.22
2018-09-16T16:26:14.169Z,94383.06
2018-09-16T16:41:49.321Z,94381.22
2018-09-16T16:57:24.159Z,94396.87
2018-09-16T17:12:58.519Z,94414.19
2018-09-16T17:28:33.051Z,94432.91
2018-09-16T17:44:08.839Z,94458.16
2018-09-16T17:59:43.693Z,94473.28
2018-09-16T18:15:17.090Z,94496.00
2018-09-16T18:30:52.210Z,94501.69
2018-09-16T18:46:27.809Z,94509.52
2018-09-16T19:02:02.470Z,94512.97
2018-09-16T19:17:36.904Z,94514.61
2018-09-16T19:33:11.418Z,94508.01
2018-09-16T19:48:45.486Z,94512.00
2018-09-16T20:04:19.109Z,94512.64
2018-09-16T20:19:54.004Z,94511.75
2018-09-16T20:35:28.496Z,94518.81
2018-09-16T20:51:03.115Z,94534.58
2018-09-16T21:06:37.554Z,94531.20
2018-09-16T21:22:12.111Z,94527.07
2018-09-16T21:37:46.910Z,94530.88
2018-09-16T21:53:21.321Z,94526.14
2018-09-16T22:08:55.866Z,94521.70
2018-09-16T22:24:29.186Z,94520.37
2018-09-16T22:40:02.968Z,94517.34
2018-09-16T22:55:37.928Z,94530.93
2018-09-16T23:11:12.562Z,94509.56
2018-09-16T23:26:47.035Z,94516.75
2018-09-16T23:42:21.145Z,94521.76
2018-09-16T23:57:55.625Z,94523.89
